Nashville, TN (37203)

12:07 AM CDT on July 25, 2016 (GMT -0500)
APRSWXNET | | Change Station

Elev 551 ft 36.14 °N, 86.80 °W | Updated 33 minutes ago

Mostly Cloudy
Mostly Cloudy
84 °F
Feels Like 93 °F
N
8
Wind Variable Wind from South
Gusts 0.0 mph

Today
High -- | Low -- °F
--% Chance of Precip.
Yesterday
High -- | Low -- °F
Precip. -- in
Pressure 29.96 in
Visibility 10.0 miles
Clouds Mostly Cloudy 25000 ft
Heat Index 93 °F
Dew Point 76 °F
Humidity 76%
Rainfall in
Snow Depth Not available.
5:49 AM 7:57 PM
Waning Gibbous, 69% visible
METAR KBNA 250453Z 19003KT 10SM BKN250 27/22 A2998 RMK AO2 SLP145 T02720222 $
Pressure 29.96 in
Visibility 10.0 miles
Clouds Mostly Cloudy 25000 ft
Heat Index 93 °F
Dew Point 76 °F
Humidity 76%
Rainfall in
Snow Depth Not available.
5:49 AM 7:57 PM
Waning Gibbous, 69% visible
METAR KBNA 250453Z 19003KT 10SM BKN250 27/22 A2998 RMK AO2 SLP145 T02720222 $

10-Day Weather Forecast

Almanac

Astronomy

Jul. 25, 2016 Rise Set
Actual Time
Civil Twilight
Nautical Twilight
Astronomical Twilight
Moon
Length of Visible Light
Length of Day
Tomorrow will be .
, % of the Moon is Illuminated

Today's Extremes

State Highs State Lows

Community

WunderPhotos

Upload Photos

1,927,270 photos uploaded!

WunderBlog® & News

Nearby

Air Quality

  Air Quality AQ Index Pollutant
Not available.

Snow Depth

Station Depth Elevation

Earthquake Activity

City Distance Mag. Time & Date
Minimum magnitude displayed is 2.5.

Coastal Water Temperatures

Place Temperature

Stations

Nearby Weather Stations

Station Location Temp. Windchill Dew Point Humidity Wind Precip. Elev Updated Type
                   

Watches & Warnings

There are currently no watches in effect.